Terminal Aerodrome Forecast
Issued by NWS Cleveland, OH

Home | Current Version | Previous Version | Graphics & Text | Print | Product List | Glossary On
Versions: 1 2 3 4 5 6 7 8 9 10 11 12 13 14 15 16 17 18 19 20 21 22 23 24 25
000
FTUS41 KCLE 202300
TAFCLE
TAF
KCLE 202320Z 2100/2206 25003KT P6SM OVC028
     FM210100 25003KT P6SM -SHSN OVC025
      TEMPO 2101/2105 5SM -SHSN OVC020
     FM210800 VRB03KT P6SM OVC015
     FM211600 20003KT P6SM BKN025
     FM212200 14004KT P6SM SCT025 BKN250
     FM220200 14005KT P6SM BKN250=

USA.gov is the U.S. government's official web portal to all federal, state and local government web resources and services.